ěÝzenÝ letovÚho provozu ╚eskÚ republiky
Letiste: LKNA Aktualizace: 30.05.2020 02:01:17  UTC
 METAR LKNA 30.05. 02:00 ...
METAR LKNA 300200Z 35005KT CAVOK 09/03 Q1021 RMK BLU=
 TAF LKNA 29.05. 23:00 ...
TAF LKNA 292300Z 3000/3100 36008KT CAVOK      TEMPO 3009/3018 9999 BKN035      PROB30 TEMPO 3010/3018 01018KT 9999 SHRA BKN030=